createdAt,value
2023-02-11T00:02:01.090Z,29.58
2023-02-11T00:04:28.329Z,29.38
2023-02-11T00:06:55.671Z,29.38
2023-02-11T00:09:23.152Z,27.92
2023-02-11T00:11:50.480Z,32.67
2023-02-11T00:14:18.922Z,30.42
2023-02-11T00:16:46.311Z,29.02
2023-02-11T00:19:13.833Z,26.02
2023-02-11T00:21:42.926Z,28.50
2023-02-11T00:24:30.706Z,28.13
2023-02-11T00:27:32.253Z,31.95
2023-02-11T00:30:35.684Z,32.72
2023-02-11T00:33:17.062Z,30.43
2023-02-11T00:35:47.263Z,26.63
2023-02-11T00:38:15.503Z,31.20
2023-02-11T00:40:45.625Z,33.10
2023-02-11T00:43:17.373Z,33.10
2023-02-11T00:45:54.910Z,31.08
2023-02-11T00:48:47.679Z,31.40
2023-02-11T00:51:33.221Z,30.23
2023-02-11T00:54:05.037Z,30.25
2023-02-11T00:56:58.189Z,28.50
2023-02-11T00:59:57.524Z,30.35
2023-02-11T01:02:43.001Z,28.55
2023-02-11T01:05:14.695Z,31.00
2023-02-11T01:07:48.621Z,28.77
2023-02-11T01:10:37.624Z,29.75
2023-02-11T01:13:23.014Z,29.73
2023-02-11T01:16:16.564Z,28.52
2023-02-11T01:19:03.084Z,31.15
2023-02-11T01:21:32.666Z,29.63
2023-02-11T01:24:01.739Z,32.45
2023-02-11T01:26:31.282Z,32.25
2023-02-11T01:29:22.995Z,32.63
2023-02-11T01:32:24.830Z,33.33
2023-02-11T01:35:15.595Z,30.70
2023-02-11T01:37:45.255Z,32.05
2023-02-11T01:40:20.652Z,31.80
2023-02-11T01:42:53.429Z,32.45
2023-02-11T01:46:01.082Z,30.03
2023-02-11T01:49:17.451Z,29.98
2023-02-11T01:56:29.990Z,27.98
2023-02-11T01:59:28.016Z,34.72
2023-02-11T02:02:10.737Z,31.13
2023-02-11T02:04:57.542Z,32.45
2023-02-11T02:08:02.538Z,31.60
2023-02-11T02:10:48.110Z,28.80
2023-02-11T02:13:24.298Z,28.15
2023-02-11T02:20:01.937Z,30.27
2023-02-11T02:23:28.988Z,29.10
2023-02-11T02:26:28.395Z,34.13
2023-02-11T02:28:58.372Z,35.13
2023-02-11T02:31:47.285Z,29.88
2023-02-11T02:34:30.440Z,31.25
2023-02-11T02:37:21.991Z,28.80
2023-02-11T02:39:50.832Z,29.50
2023-02-11T02:42:19.979Z,32.13
2023-02-11T02:44:51.530Z,30.20
2023-02-11T02:47:18.943Z,29.83
2023-02-11T02:49:58.997Z,30.23
2023-02-11T02:52:52.179Z,32.00
2023-02-11T02:55:41.136Z,31.33
2023-02-11T02:58:59.667Z,28.00
2023-02-11T03:01:55.950Z,30.45
2023-02-11T03:04:37.238Z,34.75
2023-02-11T03:07:18.215Z,32.45
2023-02-11T03:10:15.995Z,29.25
2023-02-11T03:13:18.971Z,30.38
2023-02-11T03:16:07.212Z,29.00
2023-02-11T03:18:37.212Z,30.20
2023-02-11T03:21:07.325Z,30.58
2023-02-11T03:23:44.830Z,29.70
2023-02-11T03:26:25.895Z,30.98
2023-02-11T03:29:11.738Z,29.85
2023-02-11T03:32:05.588Z,28.90
2023-02-11T03:34:47.838Z,29.60
2023-02-11T03:37:35.086Z,27.48
2023-02-11T03:40:24.957Z,27.80
2023-02-11T03:43:34.001Z,31.20
2023-02-11T03:46:18.266Z,30.05
2023-02-11T03:49:09.969Z,32.17
2023-02-11T03:52:12.989Z,28.88
2023-02-11T03:54:56.809Z,31.00
2023-02-11T03:57:43.989Z,32.97
2023-02-11T04:00:51.981Z,35.40
2023-02-11T04:03:52.987Z,32.72
2023-02-11T04:06:23.371Z,31.10
2023-02-11T04:08:50.823Z,31.52
2023-02-11T04:11:18.198Z,28.02
2023-02-11T04:13:45.404Z,28.63
2023-02-11T04:16:12.570Z,31.30
2023-02-11T04:18:39.601Z,29.67
2023-02-11T04:21:07.277Z,29.83
2023-02-11T04:23:34.510Z,29.50
2023-02-11T04:26:01.702Z,33.72
2023-02-11T04:28:29.833Z,29.50
2023-02-11T04:30:58.032Z,30.08
2023-02-11T04:33:25.427Z,30.52
2023-02-11T04:35:52.778Z,30.27
2023-02-11T04:38:20.183Z,27.80
2023-02-11T04:40:47.388Z,25.90
2023-02-11T04:43:14.641Z,29.75
2023-02-11T04:45:42.602Z,30.83
2023-02-11T04:48:09.781Z,26.30
2023-02-11T04:51:11.011Z,31.52
2023-02-11T04:54:12.000Z,27.75
2023-02-11T04:57:13.033Z,28.50
2023-02-11T05:00:14.006Z,26.50
2023-02-11T05:02:54.631Z,28.55
2023-02-11T05:05:24.179Z,28.05
2023-02-11T05:07:53.992Z,28.23
2023-02-11T05:10:21.393Z,25.85
2023-02-11T05:12:49.653Z,23.85
2023-02-11T05:15:17.031Z,25.50
2023-02-11T05:17:44.484Z,25.48
2023-02-11T05:20:11.882Z,28.63
2023-02-11T05:22:42.254Z,24.67
2023-02-11T05:25:09.901Z,23.30
2023-02-11T05:27:39.547Z,24.25
2023-02-11T05:30:10.959Z,21.83
2023-02-11T05:32:38.354Z,23.88
2023-02-11T05:35:05.829Z,22.50
2023-02-11T05:37:33.467Z,24.27
2023-02-11T05:40:00.767Z,24.60
2023-02-11T05:42:28.192Z,24.13
2023-02-11T05:44:55.454Z,22.27
2023-02-11T05:47:22.743Z,29.17
2023-02-11T05:50:11.005Z,23.00
2023-02-11T05:53:15.116Z,24.65
2023-02-11T05:56:17.021Z,24.75
2023-02-11T05:59:00.030Z,27.67
2023-02-11T06:01:47.173Z,23.13
2023-02-11T06:04:27.716Z,26.10
2023-02-11T06:06:55.032Z,25.95
2023-02-11T06:09:23.004Z,22.48
2023-02-11T06:11:50.396Z,23.92
2023-02-11T06:14:26.827Z,24.15
2023-02-11T06:16:56.138Z,28.85
2023-02-11T06:19:28.930Z,25.75
2023-02-11T06:22:18.284Z,23.25
2023-02-11T06:25:02.403Z,25.27
2023-02-11T06:27:34.673Z,24.77
2023-02-11T06:30:23.126Z,23.17
2023-02-11T06:33:04.384Z,22.60
2023-02-11T06:35:33.606Z,23.48
2023-02-11T06:38:01.475Z,26.35
2023-02-11T06:40:30.477Z,26.48
2023-02-11T06:42:58.021Z,24.17
2023-02-11T06:45:45.043Z,24.08
2023-02-11T06:48:25.750Z,24.52
2023-02-11T06:50:53.100Z,24.92
2023-02-11T06:53:20.958Z,24.73
2023-02-11T06:56:08.553Z,24.10
2023-02-11T06:59:27.363Z,22.77
2023-02-11T07:02:29.251Z,23.83
2023-02-11T07:05:12.601Z,23.55
2023-02-11T07:07:42.862Z,24.05
2023-02-11T07:10:11.417Z,24.27
2023-02-11T07:12:39.157Z,24.30
2023-02-11T07:15:26.170Z,27.45
2023-02-11T07:18:14.737Z,27.13
2023-02-11T07:24:14.212Z,24.65
2023-02-11T07:26:41.931Z,27.48
2023-02-11T07:29:35.112Z,25.67
2023-02-11T07:36:48.713Z,24.73
2023-02-11T07:40:15.753Z,25.92
2023-02-11T07:52:03.580Z,20.83
2023-02-11T08:15:07.218Z,26.98
2023-02-11T08:21:04.739Z,26.35
2023-02-11T08:30:18.113Z,24.35
2023-02-11T08:32:45.128Z,34.22
2023-02-11T08:35:12.618Z,28.27
2023-02-11T08:38:01.059Z,29.92
2023-02-11T08:41:02.089Z,29.85
2023-02-11T08:43:44.277Z,28.83
2023-02-11T08:46:33.091Z,26.80
2023-02-11T08:49:38.997Z,27.48
2023-02-11T08:52:57.757Z,28.98
2023-02-11T08:55:48.277Z,27.27
2023-02-11T09:02:25.335Z,27.08
2023-02-11T09:05:08.251Z,28.95
2023-02-11T09:08:02.184Z,28.95
2023-02-11T09:10:54.076Z,26.98
2023-02-11T09:13:57.149Z,28.27
2023-02-11T09:16:58.172Z,30.52
2023-02-11T09:19:59.144Z,27.98
2023-02-11T09:23:00.064Z,28.30
2023-02-11T09:25:41.360Z,27.27
2023-02-11T09:28:09.194Z,29.30
2023-02-11T09:30:38.130Z,28.30
2023-02-11T09:33:05.150Z,25.75
2023-02-11T09:35:33.295Z,27.45
2023-02-11T09:38:00.382Z,29.42
2023-02-11T09:41:18.531Z,27.55
2023-02-11T09:44:13.833Z,24.40
2023-02-11T09:46:47.816Z,24.67
2023-02-11T09:49:39.028Z,28.77
2023-02-11T09:52:25.235Z,25.92
2023-02-11T09:55:04.284Z,25.55
2023-02-11T09:57:51.262Z,29.45
2023-02-11T10:00:43.410Z,26.80
2023-02-11T10:03:33.227Z,25.75
2023-02-11T10:06:06.734Z,25.08
2023-02-11T10:09:13.001Z,25.35
2023-02-11T10:12:32.219Z,24.60
2023-02-11T10:16:17.302Z,24.80
2023-02-11T10:19:43.183Z,25.83
2023-02-11T10:23:02.186Z,27.58
2023-02-11T10:25:50.858Z,24.00
2023-02-11T10:28:34.031Z,27.60
2023-02-11T10:31:18.446Z,22.42
2023-02-11T10:33:57.328Z,22.92
2023-02-11T10:36:30.780Z,21.27
2023-02-11T10:39:28.695Z,26.27
2023-02-11T10:42:14.300Z,22.35
2023-02-11T10:45:24.048Z,23.83
2023-02-11T10:48:45.418Z,24.80
2023-02-11T10:51:41.229Z,26.30
2023-02-11T10:54:28.817Z,27.77
2023-02-11T10:57:19.165Z,26.27
2023-02-11T11:00:52.578Z,26.45
2023-02-11T11:03:39.221Z,22.73
2023-02-11T11:06:09.942Z,25.13
2023-02-11T11:09:05.582Z,24.33
2023-02-11T11:12:13.244Z,23.73
2023-02-11T11:15:32.897Z,24.40
2023-02-11T11:18:35.703Z,21.55
2023-02-11T11:21:55.692Z,23.58
2023-02-11T11:24:46.859Z,20.05
2023-02-11T11:27:24.736Z,24.13
2023-02-11T11:29:55.483Z,23.17
2023-02-11T11:32:25.603Z,23.75
2023-02-11T11:35:00.174Z,24.30
2023-02-11T11:37:50.181Z,21.83
2023-02-11T11:40:35.510Z,23.13
2023-02-11T11:43:07.669Z,21.30
2023-02-11T11:45:34.923Z,19.45
2023-02-11T11:48:24.719Z,23.10
2023-02-11T11:51:01.664Z,23.73
2023-02-11T11:53:41.260Z,23.27
2023-02-11T11:56:35.183Z,23.42
2023-02-11T11:59:17.606Z,21.63
2023-02-11T12:02:33.176Z,22.80
2023-02-11T12:05:20.943Z,21.85
2023-02-11T12:08:02.207Z,22.35
2023-02-11T12:14:02.127Z,21.63
2023-02-11T12:16:57.753Z,23.70
2023-02-11T12:19:56.687Z,24.77
2023-02-11T12:22:47.285Z,23.63
2023-02-11T12:25:52.204Z,24.00
2023-02-11T12:29:16.593Z,23.20
2023-02-11T12:32:20.768Z,24.95
2023-02-11T12:35:20.355Z,24.43
2023-02-11T12:38:21.312Z,23.63
2023-02-11T12:41:46.356Z,25.20
2023-02-11T12:44:49.577Z,24.80
2023-02-11T12:47:38.901Z,26.17
2023-02-11T12:50:19.795Z,24.92
2023-02-11T12:53:35.963Z,23.30
2023-02-11T12:56:55.195Z,23.85
2023-02-11T13:00:34.257Z,26.20
2023-02-11T13:03:35.233Z,24.67
2023-02-11T13:06:22.836Z,25.55
2023-02-11T13:08:59.792Z,26.83
2023-02-11T13:11:29.642Z,25.90
2023-02-11T13:14:29.565Z,26.77
2023-02-11T13:17:37.744Z,26.83
2023-02-11T13:21:30.566Z,27.23
2023-02-11T13:24:56.287Z,27.20
2023-02-11T13:28:25.860Z,27.58
2023-02-11T13:33:46.037Z,24.92
2023-02-11T13:36:39.335Z,27.95
2023-02-11T13:39:21.873Z,26.55
2023-02-11T13:41:52.459Z,26.25
2023-02-11T13:44:23.986Z,29.25
2023-02-11T13:47:22.842Z,27.23
2023-02-11T13:49:54.421Z,26.88
2023-02-11T13:52:49.238Z,29.45
2023-02-11T13:55:52.230Z,26.10
2023-02-11T13:58:40.015Z,27.77
2023-02-11T14:01:08.153Z,26.98
2023-02-11T14:03:58.020Z,27.90
2023-02-11T14:07:07.282Z,29.08
2023-02-11T14:09:45.023Z,26.38
2023-02-11T14:12:26.759Z,28.52
2023-02-11T14:15:08.493Z,28.38
2023-02-11T14:17:36.804Z,24.77
2023-02-11T14:20:52.434Z,28.63
2023-02-11T14:23:54.309Z,26.75
2023-02-11T14:27:08.241Z,24.50
2023-02-11T14:30:13.319Z,24.45
2023-02-11T14:33:23.870Z,25.85
2023-02-11T14:36:34.659Z,25.52
2023-02-11T14:39:24.844Z,27.05
2023-02-11T14:41:52.982Z,25.75
2023-02-11T14:44:25.384Z,26.13
2023-02-11T14:47:14.309Z,28.45
2023-02-11T14:50:16.357Z,23.60
2023-02-11T14:53:04.359Z,26.17
2023-02-11T14:55:55.316Z,28.92
2023-02-11T14:58:35.939Z,27.80
2023-02-11T15:01:21.059Z,26.30
2023-02-11T15:03:50.675Z,27.42
2023-02-11T15:06:47.333Z,22.88
2023-02-11T15:09:19.409Z,28.52
2023-02-11T15:11:54.857Z,25.15
2023-02-11T15:14:24.272Z,26.63
2023-02-11T15:16:59.605Z,29.35
2023-02-11T15:22:08.224Z,28.15
2023-02-11T15:24:56.293Z,28.13
2023-02-11T15:28:03.344Z,27.13
2023-02-11T15:31:34.932Z,24.77
2023-02-11T15:34:36.682Z,25.83
2023-02-11T15:37:44.284Z,27.17
2023-02-11T15:40:48.448Z,27.77
2023-02-11T15:44:00.384Z,27.50
2023-02-11T15:46:48.483Z,25.65
2023-02-11T15:49:40.328Z,24.13
2023-02-11T15:52:26.416Z,25.08
2023-02-11T15:54:56.252Z,26.15
2023-02-11T15:57:44.291Z,27.42
2023-02-11T16:00:50.842Z,28.05
2023-02-11T16:03:33.074Z,27.17
2023-02-11T16:06:21.909Z,26.15
2023-02-11T16:09:19.314Z,26.13
2023-02-11T16:12:22.628Z,26.60
2023-02-11T16:14:50.853Z,31.40
2023-02-11T16:17:18.669Z,27.15
2023-02-11T16:19:47.917Z,28.38
2023-02-11T16:22:44.341Z,26.70
2023-02-11T16:25:51.344Z,24.38
2023-02-11T16:28:33.147Z,27.35
2023-02-11T16:31:02.486Z,28.92
2023-02-11T16:33:49.354Z,28.17
2023-02-11T16:36:50.342Z,42.88
2023-02-11T16:39:35.264Z,29.88
2023-02-11T16:42:05.739Z,28.52
2023-02-11T16:44:35.040Z,31.52
2023-02-11T16:47:45.432Z,33.33
2023-02-11T16:50:30.162Z,27.17
2023-02-11T16:53:03.762Z,28.92
2023-02-11T16:55:53.347Z,26.60
2023-02-11T16:58:33.961Z,29.98
2023-02-11T17:01:32.674Z,29.35
2023-02-11T17:05:03.276Z,26.30
2023-02-11T17:08:32.303Z,29.35
2023-02-11T17:11:20.381Z,23.23
2023-02-11T17:13:48.813Z,26.17
2023-02-11T17:16:20.760Z,31.77
2023-02-11T17:19:16.386Z,27.40
2023-02-11T17:21:48.397Z,26.33
2023-02-11T17:24:36.432Z,28.20
2023-02-11T17:27:21.752Z,27.38
2023-02-11T17:30:22.683Z,27.73
2023-02-11T17:33:33.979Z,26.27
2023-02-11T17:36:43.248Z,28.23
2023-02-11T17:39:44.457Z,25.42
2023-02-11T17:42:43.152Z,27.67
2023-02-11T17:45:30.440Z,30.75
2023-02-11T17:48:19.128Z,24.65
2023-02-11T17:51:07.427Z,27.02
2023-02-11T17:53:48.167Z,26.95
2023-02-11T17:56:36.457Z,25.45
2023-02-11T17:59:17.650Z,28.70
2023-02-11T18:01:45.049Z,29.05
2023-02-11T18:04:18.011Z,29.98
2023-02-11T18:06:46.422Z,29.52
2023-02-11T18:09:14.421Z,28.25
2023-02-11T18:11:42.434Z,28.55
2023-02-11T18:14:11.391Z,27.80
2023-02-11T18:16:43.353Z,30.00
2023-02-11T18:22:58.903Z,27.45
2023-02-11T18:26:16.443Z,28.40
2023-02-11T18:29:18.489Z,29.75
2023-02-11T18:32:12.992Z,31.75
2023-02-11T18:34:58.463Z,33.17
2023-02-11T18:43:47.102Z,30.38
2023-02-11T18:46:19.185Z,29.88
2023-02-11T18:52:42.978Z,27.52
2023-02-11T18:55:58.794Z,28.95
2023-02-11T18:59:15.580Z,32.67
2023-02-11T19:02:40.184Z,29.45
2023-02-11T19:05:33.525Z,28.08
2023-02-11T19:08:12.000Z,29.85
2023-02-11T19:14:22.308Z,29.75
2023-02-11T19:17:13.690Z,31.38
2023-02-11T19:19:55.882Z,32.47
2023-02-11T19:23:08.484Z,32.85
2023-02-11T19:29:26.899Z,30.20
2023-02-11T19:32:08.448Z,33.88
2023-02-11T19:35:07.174Z,33.13
2023-02-11T19:37:40.014Z,34.13
2023-02-11T19:43:17.371Z,37.83
2023-02-11T19:49:01.160Z,38.78
2023-02-11T19:51:40.548Z,38.22
2023-02-11T19:54:31.849Z,37.58
2023-02-11T19:57:34.507Z,33.22
2023-02-11T20:00:35.482Z,35.40
2023-02-11T20:03:16.278Z,39.88
2023-02-11T20:05:47.254Z,35.38
2023-02-11T20:08:17.135Z,37.40
2023-02-11T20:10:47.450Z,35.53
2023-02-11T20:13:17.120Z,35.53
2023-02-11T20:16:04.548Z,34.28
2023-02-11T20:19:09.405Z,33.97
2023-02-11T20:25:35.406Z,37.15
2023-02-11T20:28:16.646Z,38.38
2023-02-11T20:30:44.895Z,36.67
2023-02-11T20:33:15.367Z,37.90
2023-02-11T20:35:42.742Z,38.45
2023-02-11T20:38:09.994Z,34.83
2023-02-11T20:40:38.510Z,38.63
2023-02-11T20:43:05.776Z,33.63
2023-02-11T20:45:35.629Z,36.40
2023-02-11T20:48:03.020Z,35.67
2023-02-11T20:50:50.533Z,38.85
2023-02-11T20:53:31.528Z,38.13
2023-02-11T20:56:21.601Z,39.58
2023-02-11T20:59:04.197Z,43.42
2023-02-11T21:01:36.395Z,39.95
2023-02-11T21:04:11.117Z,36.25
2023-02-11T21:06:41.044Z,36.17
2023-02-11T21:09:11.493Z,36.35
2023-02-11T21:12:01.514Z,34.30
2023-02-11T21:15:03.569Z,32.70
2023-02-11T21:17:44.312Z,36.20
2023-02-11T21:20:11.848Z,37.28
2023-02-11T21:22:39.129Z,33.90
2023-02-11T21:25:27.541Z,33.83
2023-02-11T21:28:08.581Z,32.38
2023-02-11T21:30:39.000Z,36.95
2023-02-11T21:33:06.383Z,33.80
2023-02-11T21:35:34.759Z,34.95
2023-02-11T21:38:02.171Z,35.90
2023-02-11T21:40:29.879Z,34.53
2023-02-11T21:42:57.391Z,33.90
2023-02-11T21:45:25.584Z,33.75
2023-02-11T21:47:53.187Z,31.17
2023-02-11T21:50:40.564Z,36.25
2023-02-11T21:53:21.494Z,32.78
2023-02-11T21:56:25.508Z,33.65
2023-02-11T21:59:06.629Z,32.85
2023-02-11T22:01:35.419Z,34.15
2023-02-11T22:04:02.686Z,30.48
2023-02-11T22:06:49.616Z,33.25
2023-02-11T22:09:30.300Z,34.03
2023-02-11T22:11:57.457Z,33.03
2023-02-11T22:14:24.564Z,32.85
2023-02-11T22:16:52.583Z,33.45
2023-02-11T22:19:20.004Z,33.00
2023-02-11T22:21:47.251Z,28.88
2023-02-11T22:24:34.550Z,32.63
2023-02-11T22:27:40.974Z,33.90
2023-02-11T22:30:41.648Z,35.50
2023-02-11T22:33:08.774Z,33.90
2023-02-11T22:35:36.025Z,34.25
2023-02-11T22:38:23.605Z,34.15
2023-02-11T22:41:10.684Z,32.72
2023-02-11T22:43:38.391Z,35.75
2023-02-11T22:46:07.799Z,36.10
2023-02-11T22:48:35.916Z,35.28
2023-02-11T22:51:13.085Z,34.90
2023-02-11T22:53:40.621Z,33.78
2023-02-11T22:56:27.555Z,30.42
2023-02-11T22:59:29.568Z,35.00
2023-02-11T23:02:30.577Z,33.60
2023-02-11T23:05:19.783Z,34.03
2023-02-11T23:07:46.969Z,33.15
2023-02-11T23:10:14.235Z,33.67
2023-02-11T23:12:41.910Z,31.75
2023-02-11T23:15:09.370Z,36.72
2023-02-11T23:17:36.456Z,35.53
2023-02-11T23:20:05.433Z,38.25
2023-02-11T23:22:32.808Z,31.75
2023-02-11T23:25:00.178Z,34.83
2023-02-11T23:27:27.292Z,37.70
2023-02-11T23:29:56.985Z,38.63
2023-02-11T23:32:37.775Z,37.10
2023-02-11T23:35:40.637Z,35.28
2023-02-11T23:38:21.359Z,32.90
2023-02-11T23:41:27.582Z,38.42
2023-02-11T23:44:30.916Z,36.38
2023-02-11T23:47:13.473Z,34.45
2023-02-11T23:49:44.670Z,34.63
2023-02-11T23:52:12.268Z,35.47
2023-02-11T23:55:11.167Z,37.00
2023-02-11T23:58:16.665Z,33.60
